Time;durP1;ratioP1;P1;durP2;ratioP2;P2;SDS_P1;SDS_P2;PMS_P1;PMS_P2;Temp;Humidity;BMP_temperature;BMP_pressure;BME280_temperature;BME280_humidity;BME280_pressure;Samples;Min_cycle;Max_cycle;Signal;HPM_P1;HPM_P2
2022/09/20 00:02:06;;;;;;;;;;;17.60;99.90;;;;;;5002497;28;20094;-77
2022/09/20 00:04:32;;;;;;;;;;;17.50;99.90;;;;;;4997528;28;19910;-77
2022/09/20 00:07:01;;;;;;;;;;;17.50;99.90;;;;;;4981071;28;19910;-77
2022/09/20 00:09:27;;;;;;;;;;;17.50;99.90;;;;;;4998035;28;20299;-77
2022/09/20 00:11:53;;;;;;;;;;;17.40;99.90;;;;;;4994707;28;19913;-77
2022/09/20 00:14:18;;;;;;;;;;;17.30;99.90;;;;;;4976184;28;19913;-77
2022/09/20 00:16:44;;;;;;;;;;;17.30;99.90;;;;;;4990068;28;19976;-77
2022/09/20 00:19:16;;;;;;;;;;;17.30;99.90;;;;;;4990692;28;19917;-77
2022/09/20 00:21:41;;;;;;;;;;;17.30;99.90;;;;;;4989047;28;20411;-77
2022/09/20 00:24:12;;;;;;;;;;;17.30;99.90;;;;;;4996062;28;19948;-77
2022/09/20 00:26:39;;;;;;;;;;;17.30;99.90;;;;;;4992801;28;19983;-77
2022/09/20 00:29:05;;;;;;;;;;;17.30;99.90;;;;;;4996206;28;19956;-77
2022/09/20 00:31:41;;;;;;;;;;;17.30;99.90;;;;;;4995931;28;19910;-77
2022/09/20 00:36:52;;;;;;;;;;;17.30;99.90;;;;;;4996412;28;19956;-77
2022/09/20 00:39:18;;;;;;;;;;;17.30;99.90;;;;;;4996511;28;20299;-77
2022/09/20 00:41:44;;;;;;;;;;;17.30;99.90;;;;;;4995905;28;19930;-77
2022/09/20 00:44:28;;;;;;;;;;;17.30;99.90;;;;;;4993243;28;19941;-76
2022/09/20 00:46:57;;;;;;;;;;;17.30;99.90;;;;;;4992810;28;19920;-76
2022/09/20 00:49:27;;;;;;;;;;;17.20;99.90;;;;;;4995262;28;19953;-77
2022/09/20 00:51:58;;;;;;;;;;;17.20;99.90;;;;;;4996794;28;20112;-77
2022/09/20 00:54:24;;;;;;;;;;;17.10;99.90;;;;;;4992932;28;20373;-77
2022/09/20 00:56:50;;;;;;;;;;;17.00;99.90;;;;;;4979613;28;20024;-77
2022/09/20 00:59:18;;;;;;;;;;;17.10;99.90;;;;;;4997242;28;19910;-77
2022/09/20 01:01:51;;;;;;;;;;;17.00;99.90;;;;;;5001597;28;20426;-77
2022/09/20 01:04:18;;;;;;;;;;;17.00;99.90;;;;;;4995542;28;19910;-76
2022/09/20 01:07:09;;;;;;;;;;;16.90;99.90;;;;;;5002301;28;19917;-77
2022/09/20 01:09:34;;;;;;;;;;;16.90;99.90;;;;;;4995990;28;19909;-77
2022/09/20 01:12:02;;;;;;;;;;;16.90;99.90;;;;;;5001513;28;19918;-77
2022/09/20 01:14:28;;;;;;;;;;;16.80;99.90;;;;;;4982327;28;20380;-77
2022/09/20 01:16:54;;;;;;;;;;;16.70;99.90;;;;;;4983411;28;19910;-77
2022/09/20 01:19:29;;;;;;;;;;;16.70;99.90;;;;;;5000564;28;19916;-77
2022/09/20 01:25:03;;;;;;;;;;;16.60;99.90;;;;;;4997175;28;19941;-77
2022/09/20 01:27:38;;;;;;;;;;;16.50;99.90;;;;;;4967850;28;20301;-77
2022/09/20 01:30:06;;;;;;;;;;;16.60;99.90;;;;;;5002673;28;19906;-77
2022/09/20 01:32:42;;;;;;;;;;;16.60;99.90;;;;;;5003189;28;19913;-77
2022/09/20 01:35:10;;;;;;;;;;;16.60;99.90;;;;;;5000561;28;20291;-77
2022/09/20 01:37:57;;;;;;;;;;;16.50;99.90;;;;;;5001188;28;19905;-76
2022/09/20 01:40:45;;;;;;;;;;;16.50;99.90;;;;;;5002599;28;20391;-77
2022/09/20 01:43:25;;;;;;;;;;;16.40;99.90;;;;;;4984910;28;19912;-78
2022/09/20 01:46:23;;;;;;;;;;;16.40;99.90;;;;;;4998085;28;19913;-77
2022/09/20 01:49:13;;;;;;;;;;;;;;;;;;;;;
2022/09/20 01:51:57;;;;;;;;;;;16.30;99.90;;;;;;5000992;28;19974;-77
2022/09/20 01:54:35;;;;;;;;;;;16.30;99.90;;;;;;4980255;28;19992;-77
2022/09/20 01:57:25;;;;;;;;;;;16.30;99.90;;;;;;4998376;28;20022;-77
2022/09/20 02:00:17;;;;;;;;;;;16.40;99.90;;;;;;4992247;28;20330;-77
2022/09/20 02:02:42;;;;;;;;;;;16.50;99.90;;;;;;4992891;28;20327;-77
2022/09/20 02:05:20;;;;;;;;;;;16.60;99.90;;;;;;4975715;28;19914;-77
2022/09/20 02:07:58;;;;;;;;;;;16.70;99.90;;;;;;4989859;28;20287;-77
2022/09/20 02:10:24;;;;;;;;;;;16.70;99.90;;;;;;4989030;28;19961;-77
2022/09/20 02:12:53;;;;;;;;;;;16.70;99.90;;;;;;4989277;28;19945;-76
2022/09/20 02:15:28;;;;;;;;;;;16.60;99.90;;;;;;4972782;28;19909;-76
2022/09/20 02:18:08;;;;;;;;;;;16.60;99.90;;;;;;4975351;28;20072;-77
2022/09/20 02:20:54;;;;;;;;;;;16.50;99.90;;;;;;4995059;28;20001;-77
2022/09/20 02:23:25;;;;;;;;;;;16.50;99.90;;;;;;4978830;28;20368;-77
2022/09/20 02:26:04;;;;;;;;;;;16.50;99.90;;;;;;4980249;28;19937;-76
2022/09/20 02:28:50;;;;;;;;;;;16.50;99.90;;;;;;4980124;28;19921;-76
2022/09/20 02:31:34;;;;;;;;;;;16.40;99.90;;;;;;4989520;28;19909;-77
2022/09/20 02:34:03;;;;;;;;;;;16.40;99.90;;;;;;4997143;28;20439;-77
2022/09/20 02:36:38;;;;;;;;;;;16.40;99.90;;;;;;4997568;28;19914;-76
2022/09/20 02:39:16;;;;;;;;;;;16.40;99.90;;;;;;4980898;28;19917;-77
2022/09/20 02:41:51;;;;;;;;;;;16.30;99.90;;;;;;4978765;28;20291;-76
2022/09/20 02:44:33;;;;;;;;;;;16.20;99.90;;;;;;4998307;28;19910;-77
2022/09/20 02:47:02;;;;;;;;;;;16.20;99.90;;;;;;4979662;28;19967;-77
2022/09/20 02:49:51;;;;;;;;;;;16.00;99.90;;;;;;4997845;28;19980;-77
2022/09/20 02:52:28;;;;;;;;;;;16.00;99.90;;;;;;4949906;28;20403;-77
2022/09/20 02:54:57;;;;;;;;;;;16.00;99.90;;;;;;4976698;28;20304;-76
2022/09/20 02:57:45;;;;;;;;;;;15.90;99.90;;;;;;4979987;28;19909;-77
2022/09/20 03:00:20;;;;;;;;;;;15.70;99.90;;;;;;4980673;28;19964;-77
2022/09/20 03:03:08;;;;;;;;;;;15.50;99.90;;;;;;4996591;28;19914;-77
2022/09/20 03:05:37;;;;;;;;;;;15.30;99.90;;;;;;4995670;28;20021;-77
2022/09/20 03:08:14;;;;;;;;;;;15.20;99.90;;;;;;4975992;28;20277;-77
2022/09/20 03:11:02;;;;;;;;;;;15.20;99.90;;;;;;4997067;28;19964;-77
2022/09/20 03:13:54;;;;;;;;;;;15.00;99.90;;;;;;4994428;28;20380;-77
2022/09/20 03:16:43;;;;;;;;;;;14.90;99.90;;;;;;4947143;28;19913;-77
2022/09/20 03:19:27;;;;;;;;;;;15.10;99.90;;;;;;4963378;28;20627;-76
2022/09/20 03:21:53;;;;;;;;;;;15.00;99.90;;;;;;4997184;28;19977;-76
2022/09/20 03:24:42;;;;;;;;;;;15.10;99.90;;;;;;4992085;28;19953;-79
2022/09/20 03:27:27;;;;;;;;;;;15.20;99.90;;;;;;4965200;28;20284;-77
2022/09/20 03:30:14;;;;;;;;;;;15.30;99.90;;;;;;4993943;28;19997;-77
2022/09/20 03:32:47;;;;;;;;;;;15.40;99.90;;;;;;4997351;28;19913;-79
2022/09/20 03:35:22;;;;;;;;;;;15.30;99.90;;;;;;4996286;28;19996;-77
2022/09/20 03:38:14;;;;;;;;;;;15.20;99.90;;;;;;4977094;28;20388;-77
2022/09/20 03:40:49;;;;;;;;;;;15.40;99.90;;;;;;4989963;28;20004;-77
2022/09/20 03:43:21;;;;;;;;;;;15.50;99.90;;;;;;4975939;28;20376;-76
2022/09/20 03:45:56;;;;;;;;;;;15.40;99.90;;;;;;4996101;28;20367;-77
2022/09/20 03:48:41;;;;;;;;;;;15.40;99.90;;;;;;4988485;28;20427;-76
2022/09/20 03:51:13;;;;;;;;;;;15.50;99.90;;;;;;4977665;28;19941;-76
2022/09/20 03:53:57;;;;;;;;;;;15.50;99.90;;;;;;4996041;28;19910;-76
2022/09/20 03:56:41;;;;;;;;;;;15.50;99.90;;;;;;4972509;28;19906;-77
2022/09/20 03:59:27;;;;;;;;;;;15.50;99.90;;;;;;4994382;28;19910;-76
2022/09/20 04:01:53;;;;;;;;;;;15.50;99.90;;;;;;5000432;28;19913;-77
2022/09/20 04:04:26;;;;;;;;;;;15.50;99.90;;;;;;4991426;28;19919;-76
2022/09/20 04:07:04;;;;;;;;;;;15.50;99.90;;;;;;4976442;28;19976;-77
2022/09/20 04:09:30;;;;;;;;;;;15.50;99.90;;;;;;4992296;28;20035;-77
2022/09/20 04:12:06;;;;;;;;;;;15.50;99.90;;;;;;4971829;28;20363;-78
2022/09/20 04:14:51;;;;;;;;;;;15.50;99.90;;;;;;4968209;28;20047;-76
2022/09/20 04:17:19;;;;;;;;;;;15.50;99.90;;;;;;4987394;28;19917;-76
2022/09/20 04:19:47;;;;;;;;;;;15.40;99.90;;;;;;4987871;28;19910;-77
2022/09/20 04:22:19;;;;;;;;;;;15.40;99.90;;;;;;4985580;28;19932;-77
2022/09/20 04:24:53;;;;;;;;;;;15.30;99.90;;;;;;4983891;28;19972;-76
2022/09/20 04:27:28;;;;;;;;;;;15.30;99.90;;;;;;4987010;28;20378;-77
2022/09/20 04:30:00;;;;;;;;;;;15.20;99.90;;;;;;4985213;28;19914;-76
2022/09/20 04:32:26;;;;;;;;;;;15.20;99.90;;;;;;4986122;28;19956;-76
2022/09/20 04:37:45;;;;;;;;;;;15.20;99.90;;;;;;4987126;28;19993;-76
2022/09/20 04:40:30;;;;;;;;;;;15.20;99.90;;;;;;4966436;28;20428;-76
2022/09/20 04:43:16;;;;;;;;;;;15.20;99.90;;;;;;4983099;28;19989;-76
2022/09/20 04:46:00;;;;;;;;;;;15.30;99.90;;;;;;4963870;28;19925;-77
2022/09/20 04:48:45;;;;;;;;;;;15.30;99.90;;;;;;4988095;28;19965;-76
2022/09/20 04:51:17;;;;;;;;;;;15.30;99.90;;;;;;4995449;28;19912;-76
2022/09/20 04:53:46;;;;;;;;;;;15.30;99.90;;;;;;4988377;28;20360;-77
2022/09/20 04:56:41;;;;;;;;;;;15.30;99.90;;;;;;4989733;28;19917;-76
2022/09/20 04:59:09;;;;;;;;;;;15.30;99.90;;;;;;4904362;28;20655;-76
2022/09/20 05:01:54;;;;;;;;;;;15.30;99.90;;;;;;4987816;28;19914;-77
2022/09/20 05:04:26;;;;;;;;;;;15.30;99.90;;;;;;4985289;28;19918;-76
2022/09/20 05:07:15;;;;;;;;;;;15.20;99.90;;;;;;4983155;28;19917;-77
2022/09/20 05:09:53;;;;;;;;;;;15.20;99.90;;;;;;4971637;28;20357;-76
2022/09/20 05:12:33;;;;;;;;;;;15.30;99.90;;;;;;4989363;28;19916;-78
2022/09/20 05:15:20;;;;;;;;;;;15.40;99.90;;;;;;4976511;28;20328;-77
2022/09/20 05:17:54;;;;;;;;;;;15.40;99.90;;;;;;4977015;28;19917;-77
2022/09/20 05:20:49;;;;;;;;;;;15.40;99.90;;;;;;4977575;28;19906;-78
2022/09/20 05:23:18;;;;;;;;;;;15.40;99.90;;;;;;4972985;28;19917;-77
2022/09/20 05:25:44;;;;;;;;;;;15.40;99.90;;;;;;4968783;28;19910;-78
2022/09/20 05:28:13;;;;;;;;;;;15.40;99.90;;;;;;4987313;28;19928;-77
2022/09/20 05:30:42;;;;;;;;;;;15.50;99.90;;;;;;4982880;28;19913;-77
2022/09/20 05:33:09;;;;;;;;;;;15.50;99.90;;;;;;5002543;28;19909;-78
2022/09/20 05:35:43;;;;;;;;;;;15.50;99.90;;;;;;4994242;28;19916;-78
2022/09/20 05:38:10;;;;;;;;;;;15.50;99.90;;;;;;4972393;28;20319;-78
2022/09/20 05:40:51;;;;;;;;;;;15.40;99.90;;;;;;4982824;28;19937;-78
2022/09/20 05:43:29;;;;;;;;;;;15.40;99.90;;;;;;4966792;28;19910;-77
2022/09/20 05:46:15;;;;;;;;;;;15.50;99.90;;;;;;4975874;28;20395;-77
2022/09/20 05:48:53;;;;;;;;;;;15.50;99.90;;;;;;4992827;28;20390;-78
2022/09/20 05:51:22;;;;;;;;;;;15.50;99.90;;;;;;4993275;28;19945;-78
2022/09/20 05:54:00;;;;;;;;;;;15.50;99.90;;;;;;4978245;28;20271;-78
2022/09/20 05:56:26;;;;;;;;;;;15.40;99.90;;;;;;4990683;28;19954;-78
2022/09/20 05:59:11;;;;;;;;;;;15.50;99.90;;;;;;4993779;28;19917;-78
2022/09/20 06:02:03;;;;;;;;;;;15.60;99.90;;;;;;4993743;28;20399;-77
2022/09/20 06:04:42;;;;;;;;;;;15.60;99.90;;;;;;4962809;28;19959;-78
2022/09/20 06:07:32;;;;;;;;;;;15.60;99.90;;;;;;4991820;28;19927;-78
2022/09/20 06:09:58;;;;;;;;;;;15.60;99.90;;;;;;4988191;28;19918;-78
2022/09/20 06:12:36;;;;;;;;;;;15.70;99.90;;;;;;4994213;28;19916;-78
2022/09/20 06:15:12;;;;;;;;;;;15.70;99.90;;;;;;4976472;28;20257;-77
2022/09/20 06:17:40;;;;;;;;;;;15.80;99.90;;;;;;4990006;28;19909;-78
2022/09/20 06:20:05;;;;;;;;;;;15.80;99.90;;;;;;4991806;28;19918;-78
2022/09/20 06:22:33;;;;;;;;;;;15.80;99.90;;;;;;4969927;28;20344;-77
2022/09/20 06:25:10;;;;;;;;;;;15.90;99.90;;;;;;4990608;28;20002;-71
2022/09/20 06:27:49;;;;;;;;;;;15.90;99.90;;;;;;4967495;28;19918;-72
2022/09/20 06:30:16;;;;;;;;;;;16.00;99.90;;;;;;4990715;28;19922;-71
2022/09/20 06:32:59;;;;;;;;;;;16.20;99.90;;;;;;4992034;28;19909;-70
2022/09/20 06:35:32;;;;;;;;;;;16.20;99.90;;;;;;4986737;28;19924;-70
2022/09/20 06:44:00;;;;;;;;;;;16.40;99.90;;;;;;4992934;28;19925;-71
2022/09/20 06:46:27;;;;;;;;;;;16.50;99.90;;;;;;4970700;28;19906;-71
2022/09/20 06:48:54;;;;;;;;;;;16.60;99.90;;;;;;4992133;28;19909;-72
2022/09/20 06:51:24;;;;;;;;;;;16.80;99.90;;;;;;4988575;28;19918;-74
2022/09/20 06:54:10;;;;;;;;;;;17.00;99.90;;;;;;4989547;28;19910;-73
2022/09/20 06:56:49;;;;;;;;;;;17.10;99.90;;;;;;4993270;28;20144;-73
2022/09/20 06:59:30;;;;;;;;;;;17.20;99.90;;;;;;4994534;28;19930;-75
2022/09/20 07:01:56;;;;;;;;;;;17.10;99.90;;;;;;4997481;28;19906;-74
2022/09/20 07:05:18;;;;;;;;;;;17.30;99.90;;;;;;4995873;28;20383;-75
2022/09/20 07:07:46;;;;;;;;;;;17.30;99.90;;;;;;4920527;29;19926;-74
2022/09/20 07:10:47;;;;;;;;;;;;;;;;;;;;;
2022/09/20 07:13:28;;;;;;;;;;;17.70;99.90;;;;;;4897897;29;19911;-78
2022/09/20 07:19:41;;;;;;;;;;;17.90;99.90;;;;;;4897473;29;19922;-75
2022/09/20 07:22:00;;;;;;;;;;;17.90;99.90;;;;;;4937815;28;19913;-76
2022/09/20 07:24:45;;;;;;;;;;;;;;;;;;;;;
2022/09/20 07:27:45;;;;;;;;;;;18.00;99.90;;;;;;4989540;28;20024;-76
2022/09/20 07:30:04;;;;;;;;;;;18.00;99.90;;;;;;4992204;28;19972;-76
2022/09/20 07:32:55;;;;;;;;;;;18.00;99.90;;;;;;4997842;28;20004;-76
2022/09/20 07:35:51;;;;;;;;;;;18.10;99.90;;;;;;4978703;28;19931;-76
2022/09/20 07:45:14;;;;;;;;;;;18.10;99.90;;;;;;4876686;29;19922;-76
2022/09/20 07:47:53;;;;;;;;;;;;;;;;;;;;;
2022/09/20 07:50:50;;;;;;;;;;;18.20;99.90;;;;;;4917379;29;19922;-76
2022/09/20 07:53:22;;;;;;;;;;;18.20;99.90;;;;;;4897977;29;19914;-76
2022/09/20 07:56:27;;;;;;;;;;;;;;;;;;;;;
2022/09/20 07:59:14;;;;;;;;;;;18.40;99.90;;;;;;4993117;28;19931;-76
2022/09/20 08:01:56;;;;;;;;;;;18.50;99.90;;;;;;4975010;28;19914;-75
2022/09/20 08:13:58;;;;;;;;;;;18.90;99.90;;;;;;4931822;29;19914;-76
2022/09/20 08:16:36;;;;;;;;;;;19.10;99.90;;;;;;4936242;29;19910;-76
2022/09/20 08:35:08;;;;;;;;;;;19.60;99.90;;;;;;4861594;29;20413;-75
2022/09/20 08:37:14;;;;;;;;;;;19.70;99.90;;;;;;4848379;29;19928;-76
2022/09/20 08:40:08;;;;;;;;;;;19.80;99.90;;;;;;4922544;29;19911;-76
2022/09/20 08:43:09;;;;;;;;;;;19.70;99.90;;;;;;4936182;29;19931;-76
2022/09/20 08:55:30;;;;;;;;;;;19.70;99.90;;;;;;4842285;29;20311;-77
2022/09/20 09:07:30;;;;;;;;;;;;;;;;;;;;;
2022/09/20 09:13:28;;;;;;;;;;;19.40;99.90;;;;;;4853714;29;19919;-76
2022/09/20 09:25:55;;;;;;;;;;;19.60;99.90;;;;;;4803951;29;19963;-76
2022/09/20 09:38:04;;;;;;;;;;;19.60;99.90;;;;;;4807588;29;20010;-76
2022/09/20 09:52:32;;;;;;;;;;;19.60;99.90;;;;;;4998226;28;19916;-75
2022/09/20 09:58:45;;;;;;;;;;;;;;;;;;;;;
2022/09/20 10:07:53;;;;;;;;;;;19.80;99.90;;;;;;4937937;29;19921;-76
2022/09/20 10:10:34;;;;;;;;;;;19.80;99.90;;;;;;4938175;29;20033;-77
2022/09/20 10:13:37;;;;;;;;;;;19.80;99.90;;;;;;4937001;29;19910;-75
2022/09/20 10:38:58;;;;;;;;;;;20.00;99.90;;;;;;4935544;29;20003;-76
2022/09/20 10:44:08;;;;;;;;;;;20.00;99.90;;;;;;4995446;28;20013;-75
2022/09/20 10:47:11;;;;;;;;;;;20.10;99.90;;;;;;4995344;28;19953;-76
2022/09/20 10:49:56;;;;;;;;;;;20.20;99.90;;;;;;4996214;28;19937;-75
2022/09/20 10:52:37;;;;;;;;;;;20.30;99.90;;;;;;4997072;28;20450;-75
2022/09/20 10:55:19;;;;;;;;;;;;;;;;;;;;;
2022/09/20 10:58:14;;;;;;;;;;;20.30;99.90;;;;;;4995391;28;19910;-75
2022/09/20 11:01:01;;;;;;;;;;;20.30;99.90;;;;;;4976063;28;19989;-76
2022/09/20 11:03:51;;;;;;;;;;;20.30;99.90;;;;;;4996202;28;19996;-76
2022/09/20 11:06:20;;;;;;;;;;;20.30;99.90;;;;;;4978312;28;19910;-77
2022/09/20 11:08:54;;;;;;;;;;;20.30;99.90;;;;;;4977613;28;19935;-76
2022/09/20 11:11:29;;;;;;;;;;;20.40;99.90;;;;;;4982433;28;19921;-81
2022/09/20 11:14:14;;;;;;;;;;;20.40;99.90;;;;;;4989541;28;20064;-76
2022/09/20 11:17:08;;;;;;;;;;;20.40;99.90;;;;;;4990223;28;19924;-75
2022/09/20 11:19:49;;;;;;;;;;;20.40;99.90;;;;;;4989068;28;19992;-74
2022/09/20 11:22:39;;;;;;;;;;;20.40;99.90;;;;;;4993633;28;20387;-74
2022/09/20 11:25:46;;;;;;;;;;;20.40;99.90;;;;;;4995281;28;19964;-74
2022/09/20 11:28:12;;;;;;;;;;;20.50;99.90;;;;;;4989542;28;19987;-74
2022/09/20 11:30:42;;;;;;;;;;;20.40;99.90;;;;;;4994877;28;19957;-74
2022/09/20 11:33:40;;;;;;;;;;;20.40;99.90;;;;;;4972629;28;19909;-73
2022/09/20 11:39:25;;;;;;;;;;;20.40;99.90;;;;;;4915509;29;20450;-75
2022/09/20 11:41:53;;;;;;;;;;;20.50;99.90;;;;;;4973454;28;19909;-74
2022/09/20 11:44:19;;;;;;;;;;;20.40;99.90;;;;;;4984221;28;19918;-75
2022/09/20 11:46:51;;;;;;;;;;;20.50;99.90;;;;;;4990667;28;19910;-77
2022/09/20 11:49:25;;;;;;;;;;;20.60;99.90;;;;;;4991127;28;20434;-72
2022/09/20 11:52:00;;;;;;;;;;;20.70;99.90;;;;;;4995671;28;19941;-77
2022/09/20 11:54:44;;;;;;;;;;;20.70;99.90;;;;;;4976450;28;20414;-74
2022/09/20 11:57:39;;;;;;;;;;;20.90;99.90;;;;;;4996100;28;19921;-74
2022/09/20 12:00:07;;;;;;;;;;;20.90;99.90;;;;;;4987003;28;20327;-74
2022/09/20 12:02:38;;;;;;;;;;;20.80;99.90;;;;;;4967812;28;19910;-74
2022/09/20 12:05:04;;;;;;;;;;;20.80;99.90;;;;;;4993241;28;19945;-75
2022/09/20 12:07:52;;;;;;;;;;;20.70;99.90;;;;;;4995706;28;19924;-74
2022/09/20 12:10:23;;;;;;;;;;;20.70;99.90;;;;;;4976297;28;19945;-74
2022/09/20 12:12:54;;;;;;;;;;;20.70;99.90;;;;;;4980469;28;19956;-71
2022/09/20 12:15:20;;;;;;;;;;;20.70;99.90;;;;;;4994342;28;20000;-74
2022/09/20 12:17:46;;;;;;;;;;;20.70;99.90;;;;;;4972333;28;19956;-75
2022/09/20 12:20:30;;;;;;;;;;;20.80;99.90;;;;;;4991195;28;19914;-75
2022/09/20 12:23:22;;;;;;;;;;;20.80;99.90;;;;;;4992711;28;20312;-75
2022/09/20 12:26:01;;;;;;;;;;;20.80;99.90;;;;;;4992682;28;19917;-75
2022/09/20 12:28:53;;;;;;;;;;;20.90;99.90;;;;;;4971767;28;19917;-75
2022/09/20 12:31:37;;;;;;;;;;;20.80;99.90;;;;;;4977238;28;19916;-74
2022/09/20 12:34:18;;;;;;;;;;;20.90;99.90;;;;;;4984296;28;19913;-75
2022/09/20 12:37:04;;;;;;;;;;;21.00;99.90;;;;;;4991061;28;19928;-75
2022/09/20 12:39:32;;;;;;;;;;;21.10;98.70;;;;;;4991194;28;19910;-74
2022/09/20 12:42:03;;;;;;;;;;;21.20;98.30;;;;;;4994212;28;19910;-74
2022/09/20 12:44:47;;;;;;;;;;;21.20;98.50;;;;;;4993423;28;19921;-74
2022/09/20 12:47:19;;;;;;;;;;;21.20;99.90;;;;;;4989549;28;19965;-73
2022/09/20 12:52:56;;;;;;;;;;;21.30;99.00;;;;;;4986601;28;19964;-74
2022/09/20 12:55:25;;;;;;;;;;;21.40;98.10;;;;;;4990011;28;19918;-77
2022/09/20 12:57:57;;;;;;;;;;;21.40;99.10;;;;;;5002435;28;20161;-74
2022/09/20 13:00:35;;;;;;;;;;;21.40;98.70;;;;;;5000307;28;19916;-74
2022/09/20 13:03:10;;;;;;;;;;;21.30;98.70;;;;;;4999509;28;19914;-74
2022/09/20 13:05:38;;;;;;;;;;;21.20;99.10;;;;;;4997666;28;19910;-73
2022/09/20 13:08:26;;;;;;;;;;;21.20;99.90;;;;;;4999828;28;19933;-75
2022/09/20 13:10:58;;;;;;;;;;;21.40;99.50;;;;;;5000213;28;19916;-74
2022/09/20 13:13:32;;;;;;;;;;;21.30;95.90;;;;;;4996641;28;19917;-74
2022/09/20 13:16:00;;;;;;;;;;;21.40;95.60;;;;;;4998860;28;19952;-74
2022/09/20 13:18:26;;;;;;;;;;;21.40;94.90;;;;;;4980378;28;19949;-74
2022/09/20 13:20:56;;;;;;;;;;;21.40;93.30;;;;;;4997804;28;20283;-75
2022/09/20 13:23:26;;;;;;;;;;;21.40;94.20;;;;;;5000946;28;19917;-74
2022/09/20 13:25:56;;;;;;;;;;;21.40;95.20;;;;;;5000884;28;19909;-75
2022/09/20 13:28:33;;;;;;;;;;;21.50;94.10;;;;;;5000109;28;20354;-74
2022/09/20 13:31:17;;;;;;;;;;;21.40;91.90;;;;;;4977140;28;19920;-75
2022/09/20 13:33:43;;;;;;;;;;;21.50;93.60;;;;;;4978285;28;19916;-74
2022/09/20 13:36:08;;;;;;;;;;;21.40;91.90;;;;;;4983732;28;20000;-74
2022/09/20 13:38:37;;;;;;;;;;;21.40;92.90;;;;;;4982114;28;19918;-75
2022/09/20 13:41:06;;;;;;;;;;;21.50;92.10;;;;;;4996830;28;19909;-73
2022/09/20 13:43:42;;;;;;;;;;;21.50;91.50;;;;;;4997441;28;19916;-75
2022/09/20 13:46:34;;;;;;;;;;;21.70;92.50;;;;;;4999152;28;19910;-74
2022/09/20 13:49:19;;;;;;;;;;;21.50;91.90;;;;;;4988031;28;19924;-75
2022/09/20 13:51:45;;;;;;;;;;;21.40;91.80;;;;;;4999113;28;19910;-74
2022/09/20 13:54:17;;;;;;;;;;;21.30;91.70;;;;;;4997493;28;19921;-74
2022/09/20 13:56:43;;;;;;;;;;;21.40;92.00;;;;;;4996194;28;19909;-74
2022/09/20 13:59:16;;;;;;;;;;;21.40;90.40;;;;;;4999586;28;20012;-74
2022/09/20 14:01:49;;;;;;;;;;;21.50;91.10;;;;;;5001983;28;19917;-74
2022/09/20 14:04:18;;;;;;;;;;;21.50;91.00;;;;;;4993115;28;19978;-75
2022/09/20 14:06:44;;;;;;;;;;;21.60;90.30;;;;;;4982073;28;19906;-74
2022/09/20 14:09:17;;;;;;;;;;;21.60;90.10;;;;;;4976868;28;19917;-73
2022/09/20 14:11:44;;;;;;;;;;;21.60;84.20;;;;;;4978627;28;19912;-74
2022/09/20 14:14:12;;;;;;;;;;;21.50;88.00;;;;;;4995607;28;19918;-73
2022/09/20 14:16:39;;;;;;;;;;;21.50;90.50;;;;;;4993697;28;19964;-74
2022/09/20 14:19:08;;;;;;;;;;;21.60;91.80;;;;;;4985529;28;20005;-74
2022/09/20 14:21:35;;;;;;;;;;;21.60;90.10;;;;;;4993106;28;19956;-74
2022/09/20 14:24:07;;;;;;;;;;;21.50;90.70;;;;;;4988421;28;19910;-75
2022/09/20 14:26:39;;;;;;;;;;;21.60;90.90;;;;;;4974613;28;19918;-74
2022/09/20 14:29:28;;;;;;;;;;;21.50;91.20;;;;;;4994551;28;19913;-74
2022/09/20 14:32:10;;;;;;;;;;;21.50;87.70;;;;;;4992645;28;19976;-74
2022/09/20 14:34:36;;;;;;;;;;;21.60;91.10;;;;;;4987596;28;19909;-74
2022/09/20 14:37:29;;;;;;;;;;;21.60;90.00;;;;;;4992446;28;19906;-74
2022/09/20 14:39:56;;;;;;;;;;;21.80;88.90;;;;;;4979567;28;19914;-76
2022/09/20 14:42:33;;;;;;;;;;;21.80;85.00;;;;;;4994980;28;19910;-74
2022/09/20 14:45:04;;;;;;;;;;;21.90;88.90;;;;;;4989123;28;19918;-74
2022/09/20 14:47:53;;;;;;;;;;;21.80;81.10;;;;;;4991979;28;20021;-74
2022/09/20 14:50:35;;;;;;;;;;;21.80;85.70;;;;;;4989620;28;20104;-75
2022/09/20 14:53:29;;;;;;;;;;;21.90;78.20;;;;;;4988774;28;20013;-76
2022/09/20 14:56:01;;;;;;;;;;;22.00;89.70;;;;;;4993610;28;19974;-74
2022/09/20 14:58:27;;;;;;;;;;;22.00;85.50;;;;;;4994285;28;19957;-74
2022/09/20 15:01:05;;;;;;;;;;;21.90;82.30;;;;;;4972772;28;19909;-74
2022/09/20 15:03:39;;;;;;;;;;;21.90;87.20;;;;;;4990309;28;21722;-74
2022/09/20 15:06:17;;;;;;;;;;;21.80;88.70;;;;;;4987535;28;19963;-74
2022/09/20 15:08:46;;;;;;;;;;;21.80;90.60;;;;;;4992377;28;19909;-74
2022/09/20 15:11:41;;;;;;;;;;;21.80;96.80;;;;;;4991961;28;20291;-74
2022/09/20 15:14:15;;;;;;;;;;;21.80;98.60;;;;;;4975679;28;20133;-74
2022/09/20 15:16:47;;;;;;;;;;;21.70;99.30;;;;;;4994898;28;20348;-74
2022/09/20 15:19:16;;;;;;;;;;;21.60;98.30;;;;;;4978140;28;19932;-77
2022/09/20 15:21:49;;;;;;;;;;;21.40;99.10;;;;;;4976428;28;19968;-74
2022/09/20 15:24:56;;;;;;;;;;;21.40;99.30;;;;;;4987267;28;20372;-76
2022/09/20 15:27:22;;;;;;;;;;;21.40;98.70;;;;;;4896588;29;20010;-74
2022/09/20 15:29:48;;;;;;;;;;;21.30;98.50;;;;;;4913322;28;20363;-75
2022/09/20 15:32:16;;;;;;;;;;;21.30;98.20;;;;;;4994266;28;19910;-71
2022/09/20 15:34:45;;;;;;;;;;;21.40;98.30;;;;;;4992140;28;19937;-74
2022/09/20 15:37:10;;;;;;;;;;;21.40;98.30;;;;;;4992178;28;19910;-72
2022/09/20 15:39:39;;;;;;;;;;;21.30;98.00;;;;;;4991933;28;20037;-74
2022/09/20 15:42:05;;;;;;;;;;;21.40;95.30;;;;;;4990853;28;20371;-74
2022/09/20 15:44:55;;;;;;;;;;;21.30;96.20;;;;;;4995437;28;19991;-76
2022/09/20 15:47:21;;;;;;;;;;;21.20;97.40;;;;;;4995702;28;20340;-77
2022/09/20 15:49:53;;;;;;;;;;;21.30;96.60;;;;;;4987267;28;19912;-74
2022/09/20 15:52:23;;;;;;;;;;;21.20;96.00;;;;;;4994336;28;19909;-74
2022/09/20 15:54:59;;;;;;;;;;;;;;;;;;;;;
2022/09/20 15:57:28;;;;;;;;;;;21.10;95.80;;;;;;4985431;28;19920;-75
2022/09/20 15:59:57;;;;;;;;;;;21.20;96.60;;;;;;4991604;28;19945;-75
2022/09/20 16:02:32;;;;;;;;;;;21.10;95.90;;;;;;4997735;28;19920;-74
2022/09/20 16:04:58;;;;;;;;;;;21.00;96.20;;;;;;4994949;28;20272;-76
2022/09/20 16:07:27;;;;;;;;;;;20.80;96.20;;;;;;4992403;28;20089;-74
2022/09/20 16:09:53;;;;;;;;;;;20.70;96.30;;;;;;4960028;28;19914;-75
2022/09/20 16:12:22;;;;;;;;;;;20.60;95.80;;;;;;4993265;28;20295;-78
2022/09/20 16:14:48;;;;;;;;;;;20.50;95.90;;;;;;4993862;28;19913;-74
2022/09/20 16:17:14;;;;;;;;;;;20.40;95.90;;;;;;4988685;28;20253;-77
2022/09/20 16:19:47;;;;;;;;;;;20.40;96.20;;;;;;4994145;28;19990;-74
2022/09/20 16:22:13;;;;;;;;;;;20.40;96.80;;;;;;4990181;28;20079;-75
2022/09/20 16:24:39;;;;;;;;;;;20.40;96.50;;;;;;4993690;28;19960;-75
2022/09/20 16:27:05;;;;;;;;;;;20.40;96.80;;;;;;4995037;28;19965;-74
2022/09/20 16:29:34;;;;;;;;;;;20.40;96.70;;;;;;4986511;28;20375;-74
2022/09/20 16:32:18;;;;;;;;;;;20.30;98.50;;;;;;5000339;28;19960;-75
2022/09/20 16:35:06;;;;;;;;;;;20.30;99.20;;;;;;4993001;28;20387;-74
2022/09/20 16:37:35;;;;;;;;;;;20.30;99.20;;;;;;4984662;28;19910;-73
2022/09/20 16:40:01;;;;;;;;;;;20.20;98.80;;;;;;4991692;28;19992;-73
2022/09/20 16:42:28;;;;;;;;;;;20.20;96.90;;;;;;4991440;28;19909;-73
2022/09/20 16:44:53;;;;;;;;;;;20.10;96.90;;;;;;4989963;28;21134;-73
2022/09/20 16:47:21;;;;;;;;;;;20.00;96.60;;;;;;4994372;28;20460;-73
2022/09/20 16:49:47;;;;;;;;;;;20.00;97.00;;;;;;4993377;28;19913;-74
2022/09/20 16:52:13;;;;;;;;;;;19.90;97.30;;;;;;4987627;28;19910;-73
2022/09/20 16:54:39;;;;;;;;;;;19.90;97.70;;;;;;4985956;28;20367;-74
2022/09/20 16:57:05;;;;;;;;;;;19.80;97.60;;;;;;4987895;28;19910;-73
2022/09/20 16:59:30;;;;;;;;;;;19.80;97.90;;;;;;4976693;28;19964;-73
2022/09/20 17:01:56;;;;;;;;;;;19.70;98.10;;;;;;4995597;28;19990;-74
2022/09/20 17:04:22;;;;;;;;;;;19.60;98.00;;;;;;4992738;28;19917;-72
2022/09/20 17:06:51;;;;;;;;;;;19.60;98.30;;;;;;4994618;28;19956;-73
2022/09/20 17:09:17;;;;;;;;;;;19.60;98.20;;;;;;4992779;28;19913;-72
2022/09/20 17:11:48;;;;;;;;;;;19.50;98.40;;;;;;4987821;28;19997;-72
2022/09/20 17:14:17;;;;;;;;;;;19.40;98.80;;;;;;4992047;28;19917;-72
2022/09/20 17:16:46;;;;;;;;;;;19.40;99.20;;;;;;4991277;28;20347;-71
2022/09/20 17:19:14;;;;;;;;;;;19.30;99.40;;;;;;4993984;28;19933;-73
2022/09/20 17:21:45;;;;;;;;;;;19.30;99.40;;;;;;4976225;28;19937;-72
2022/09/20 17:24:13;;;;;;;;;;;19.20;99.90;;;;;;4987246;28;19980;-72
2022/09/20 17:26:40;;;;;;;;;;;19.30;99.90;;;;;;4987140;28;20324;-71
2022/09/20 17:29:11;;;;;;;;;;;19.20;99.90;;;;;;4976959;28;19913;-72
2022/09/20 17:31:38;;;;;;;;;;;19.10;99.90;;;;;;4996829;28;20611;-72
2022/09/20 17:34:06;;;;;;;;;;;18.90;99.90;;;;;;4999265;28;20380;-72
2022/09/20 17:36:36;;;;;;;;;;;18.80;99.90;;;;;;4990824;28;20351;-73
2022/09/20 17:39:02;;;;;;;;;;;18.70;99.90;;;;;;4995069;28;20303;-72
2022/09/20 17:41:28;;;;;;;;;;;18.70;99.90;;;;;;4991214;28;19909;-72